createdAt,value
2018-04-23T00:03:58.220Z,7.07
2018-04-23T00:32:13.747Z,7.90
2018-04-23T00:34:43.781Z,6.60
2018-04-23T01:00:27.824Z,7.23
2018-04-23T01:33:50.288Z,6.57
2018-04-23T01:38:54.719Z,6.63
2018-04-23T01:43:59.185Z,6.00
2018-04-23T01:46:29.536Z,5.07
2018-04-23T02:30:06.998Z,5.90
2018-04-23T02:32:39.292Z,6.43
2018-04-23T02:35:10.781Z,5.83
2018-04-23T02:45:24.134Z,6.37
2018-04-23T03:00:43.488Z,5.97
2018-04-23T03:21:13.225Z,6.23
2018-04-23T03:46:53.944Z,5.20
2018-04-23T04:15:25.807Z,6.13
2018-04-23T04:18:14.015Z,5.87
2018-04-23T05:20:41.429Z,7.40
2018-04-23T05:25:45.628Z,8.80
2018-04-23T05:30:52.607Z,9.90
2018-04-23T05:33:22.213Z,8.07
2018-04-23T05:35:51.843Z,8.30
2018-04-23T05:38:21.397Z,10.13
2018-04-23T05:40:50.969Z,9.30
2018-04-23T05:43:20.528Z,9.37
2018-04-23T05:45:50.096Z,9.43
2018-04-23T05:48:19.622Z,9.50
2018-04-23T05:50:50.159Z,10.80
2018-04-23T05:53:19.704Z,10.20
2018-04-23T05:55:49.283Z,9.80
2018-04-23T05:58:19.760Z,8.60
2018-04-23T06:00:49.566Z,8.17
2018-04-23T06:03:24.312Z,7.97
2018-04-23T06:05:53.877Z,9.07
2018-04-23T06:08:23.382Z,7.40
2018-04-23T06:10:52.943Z,7.83
2018-04-23T06:13:22.616Z,10.80
2018-04-23T06:15:52.285Z,8.77
2018-04-23T06:18:21.862Z,7.77
2018-04-23T06:20:51.421Z,7.23
2018-04-23T06:23:20.957Z,7.90
2018-04-23T06:25:50.497Z,7.13
2018-04-23T06:28:20.032Z,6.50
2018-04-23T06:30:49.609Z,7.30
2018-04-23T06:33:19.339Z,6.50
2018-04-23T06:35:49.101Z,6.03
2018-04-23T06:38:18.693Z,9.37
2018-04-23T06:40:48.238Z,9.37
2018-04-23T06:43:17.820Z,9.23
2018-04-23T06:45:47.415Z,7.00
2018-04-23T06:48:16.978Z,9.00
2018-04-23T06:50:46.734Z,8.10
2018-04-23T06:53:16.317Z,7.00
2018-04-23T06:55:45.865Z,8.67
2018-04-23T06:58:15.434Z,7.17
2018-04-23T07:00:44.964Z,6.67
2018-04-23T07:03:14.516Z,7.60
2018-04-23T07:05:44.002Z,7.77
2018-04-23T07:08:13.560Z,7.40
2018-04-23T07:10:43.143Z,7.30
2018-04-23T07:13:12.857Z,7.70
2018-04-23T07:15:42.389Z,7.83
2018-04-23T07:18:11.964Z,6.93
2018-04-23T07:20:41.448Z,7.67
2018-04-23T07:23:11.070Z,8.30
2018-04-23T07:25:40.585Z,7.40
2018-04-23T07:28:10.101Z,8.67
2018-04-23T07:30:39.667Z,8.07
2018-04-23T07:33:09.433Z,8.60
2018-04-23T07:35:39.028Z,8.63
2018-04-23T07:38:08.545Z,8.90
2018-04-23T07:40:38.040Z,7.73
2018-04-23T07:43:07.694Z,7.17
2018-04-23T07:45:37.219Z,7.97
2018-04-23T07:48:06.799Z,6.93
2018-04-23T07:50:36.362Z,6.90
2018-04-23T07:53:05.888Z,6.83
2018-04-23T07:55:35.393Z,7.33
2018-04-23T07:58:04.868Z,5.73
2018-04-23T08:00:34.425Z,7.60
2018-04-23T08:03:04.126Z,6.30
2018-04-23T08:05:33.768Z,7.20
2018-04-23T08:08:03.348Z,6.50
2018-04-23T08:10:32.906Z,7.77
2018-04-23T08:13:02.567Z,7.47
2018-04-23T08:15:32.156Z,7.97
2018-04-23T08:18:01.725Z,6.77
2018-04-23T08:20:31.254Z,8.10
2018-04-23T08:23:00.797Z,7.93
2018-04-23T08:25:30.414Z,8.07
2018-04-23T08:27:59.942Z,6.23
2018-04-23T08:30:29.540Z,7.13
2018-04-23T08:32:59.118Z,7.30
2018-04-23T08:35:28.779Z,7.07
2018-04-23T08:37:58.374Z,8.10
2018-04-23T08:40:27.908Z,7.93
2018-04-23T08:42:57.547Z,8.47
2018-04-23T08:45:27.110Z,8.27
2018-04-23T08:47:56.753Z,8.37
2018-04-23T08:50:26.275Z,8.17
2018-04-23T08:52:55.966Z,8.97
2018-04-23T08:55:25.642Z,7.30
2018-04-23T08:57:55.230Z,8.20
2018-04-23T09:00:24.746Z,8.03
2018-04-23T09:02:54.446Z,8.53
2018-04-23T09:05:24.064Z,8.70
2018-04-23T09:07:53.713Z,7.70
2018-04-23T09:10:23.257Z,9.17
2018-04-23T09:12:52.774Z,9.50
2018-04-23T09:15:22.296Z,7.47
2018-04-23T09:17:51.866Z,7.27
2018-04-23T09:20:21.376Z,7.63
2018-04-23T09:22:50.864Z,8.90
2018-04-23T09:25:20.438Z,9.67
2018-04-23T09:27:49.961Z,8.63
2018-04-23T09:30:19.513Z,8.77
2018-04-23T09:32:49.132Z,8.00
2018-04-23T09:35:18.633Z,8.13
2018-04-23T09:37:48.161Z,8.37
2018-04-23T09:40:17.719Z,7.90
2018-04-23T09:42:47.258Z,7.57
2018-04-23T09:45:16.861Z,8.13
2018-04-23T09:47:46.479Z,6.60
2018-04-23T09:50:16.003Z,9.67
2018-04-23T09:52:45.637Z,7.70
2018-04-23T09:55:15.252Z,7.93
2018-04-23T09:57:44.746Z,8.70
2018-04-23T10:00:14.468Z,8.00
2018-04-23T10:02:44.070Z,8.00
2018-04-23T10:05:13.609Z,8.60
2018-04-23T10:07:43.260Z,9.27
2018-04-23T10:10:12.846Z,8.47
2018-04-23T10:12:42.513Z,9.57
2018-04-23T10:15:12.052Z,9.37
2018-04-23T10:17:41.577Z,8.70
2018-04-23T10:20:11.055Z,8.07
2018-04-23T10:22:40.637Z,9.20
2018-04-23T10:25:10.198Z,9.40
2018-04-23T10:27:39.752Z,8.17
2018-04-23T10:30:09.322Z,9.00
2018-04-23T10:32:38.880Z,9.93
2018-04-23T10:35:08.439Z,7.10
2018-04-23T10:37:37.948Z,8.73
2018-04-23T10:40:07.517Z,8.77
2018-04-23T10:42:37.189Z,7.97
2018-04-23T10:45:06.747Z,8.30
2018-04-23T10:47:36.268Z,11.70
2018-04-23T10:50:05.801Z,9.27
2018-04-23T10:52:35.354Z,8.60
2018-04-23T10:55:04.977Z,9.70
2018-04-23T10:57:34.534Z,9.47
2018-04-23T11:00:04.110Z,10.00
2018-04-23T11:02:33.652Z,6.97
2018-04-23T11:05:03.250Z,8.80
2018-04-23T11:07:32.822Z,8.20
2018-04-23T11:10:02.406Z,8.57
2018-04-23T11:12:31.935Z,8.80
2018-04-23T11:15:01.449Z,10.07
2018-04-23T11:17:31.057Z,9.67
2018-04-23T11:20:00.560Z,9.90
2018-04-23T11:22:30.334Z,11.70
2018-04-23T11:24:59.868Z,9.50
2018-04-23T11:27:29.556Z,10.17
2018-04-23T11:29:59.084Z,9.77
2018-04-23T11:32:28.634Z,9.17
2018-04-23T11:34:58.164Z,10.90
2018-04-23T11:37:27.668Z,10.40
2018-04-23T11:39:57.225Z,11.10
2018-04-23T11:42:26.741Z,10.77
2018-04-23T11:44:56.241Z,10.93
2018-04-23T11:47:25.759Z,8.37
2018-04-23T11:49:55.312Z,11.70
2018-04-23T11:52:24.843Z,9.10
2018-04-23T11:54:54.355Z,9.33
2018-04-23T11:57:23.950Z,7.90
2018-04-23T11:59:53.484Z,9.17
2018-04-23T12:02:23.006Z,8.63
2018-04-23T12:04:52.519Z,8.10
2018-04-23T12:07:22.037Z,9.83
2018-04-23T12:09:51.598Z,8.70
2018-04-23T12:12:22.629Z,7.47
2018-04-23T12:14:52.362Z,7.10
2018-04-23T12:17:21.984Z,6.53
2018-04-23T12:19:51.483Z,5.90
2018-04-23T12:22:21.045Z,5.93
2018-04-23T12:24:50.570Z,6.57
2018-04-23T12:27:20.063Z,5.57
2018-04-23T12:29:49.607Z,6.30
2018-04-23T12:32:19.191Z,6.03
2018-04-23T12:34:48.822Z,5.87
2018-04-23T12:37:18.317Z,6.37
2018-04-23T12:39:47.877Z,5.47
2018-04-23T12:42:17.407Z,6.13
2018-04-23T12:44:46.976Z,5.93
2018-04-23T12:47:16.530Z,6.60
2018-04-23T12:49:47.266Z,6.73
2018-04-23T12:52:16.818Z,5.97
2018-04-23T12:54:46.417Z,6.53
2018-04-23T12:57:16.045Z,5.80
2018-04-23T12:59:45.625Z,6.00
2018-04-23T13:02:15.177Z,6.60
2018-04-23T13:04:44.756Z,6.83
2018-04-23T13:07:14.277Z,6.33
2018-04-23T13:09:43.804Z,6.03
2018-04-23T13:12:13.320Z,7.25
2018-04-23T13:14:43.037Z,7.40
2018-04-23T13:17:12.661Z,8.37
2018-04-23T13:19:42.226Z,7.68
2018-04-23T13:22:12.003Z,8.17
2018-04-23T13:24:41.570Z,6.90
2018-04-23T13:27:11.250Z,6.70
2018-04-23T13:29:40.805Z,6.37
2018-04-23T13:32:10.358Z,7.28
2018-04-23T13:34:39.906Z,6.77
2018-04-23T13:37:09.399Z,6.35
2018-04-23T13:39:38.925Z,5.80
2018-04-23T13:42:08.462Z,6.22
2018-04-23T13:44:38.020Z,6.62
2018-04-23T13:47:07.531Z,6.22
2018-04-23T13:49:37.077Z,6.47
2018-04-23T13:52:06.672Z,6.05
2018-04-23T13:54:36.184Z,5.28
2018-04-23T13:57:05.738Z,4.82
2018-04-23T13:59:35.293Z,5.05
2018-04-23T14:02:04.806Z,4.25
2018-04-23T14:04:34.514Z,4.90
2018-04-23T14:07:04.021Z,3.90
2018-04-23T14:09:33.911Z,4.20
2018-04-23T14:12:03.434Z,3.50
2018-04-23T14:14:32.922Z,3.50
2018-04-23T14:17:02.464Z,3.60
2018-04-23T14:19:32.024Z,3.97
2018-04-23T14:22:01.554Z,3.47
2018-04-23T14:24:31.065Z,3.80
2018-04-23T14:27:00.597Z,3.75
2018-04-23T14:29:30.111Z,4.07
2018-04-23T14:31:59.655Z,3.53
2018-04-23T14:34:29.160Z,3.05
2018-04-23T14:36:58.701Z,3.50
2018-04-23T14:39:28.368Z,3.53
2018-04-23T14:41:57.926Z,3.62
2018-04-23T14:44:27.470Z,4.43
2018-04-23T14:46:57.041Z,3.53
2018-04-23T14:49:26.589Z,4.03
2018-04-23T14:51:56.129Z,4.12
2018-04-23T14:54:25.748Z,4.75
2018-04-23T14:56:55.272Z,5.60
2018-04-23T14:59:24.815Z,4.35
2018-04-23T15:01:54.552Z,4.65
2018-04-23T15:04:24.267Z,5.15
2018-04-23T15:06:53.820Z,4.47
2018-04-23T15:09:23.377Z,5.03
2018-04-23T15:11:52.929Z,4.45
2018-04-23T15:14:22.565Z,3.90
2018-04-23T15:16:52.096Z,4.25
2018-04-23T15:19:21.579Z,3.70
2018-04-23T15:21:51.181Z,3.85
2018-04-23T15:24:20.771Z,3.50
2018-04-23T15:26:50.410Z,3.92
2018-04-23T15:29:19.951Z,4.00
2018-04-23T15:31:49.463Z,3.30
2018-04-23T15:34:19.021Z,3.90
2018-04-23T15:36:48.580Z,3.85
2018-04-23T15:39:18.111Z,4.00
2018-04-23T15:41:47.664Z,4.20
2018-04-23T15:44:18.373Z,3.75
2018-04-23T15:46:47.870Z,3.45
2018-04-23T15:49:17.413Z,4.55
2018-04-23T15:51:46.972Z,3.90
2018-04-23T15:54:16.472Z,4.30
2018-04-23T15:56:46.055Z,4.68
2018-04-23T15:59:15.566Z,4.00
2018-04-23T16:01:45.106Z,4.10
2018-04-23T16:04:14.636Z,4.40
2018-04-23T16:06:44.187Z,4.93
2018-04-23T16:09:13.786Z,5.65
2018-04-23T16:11:43.393Z,5.45
2018-04-23T16:14:12.919Z,4.95
2018-04-23T16:16:42.553Z,5.20
2018-04-23T16:19:12.135Z,5.95
2018-04-23T16:21:41.687Z,5.55
2018-04-23T16:24:11.329Z,4.97
2018-04-23T16:26:40.878Z,5.07
2018-04-23T16:29:10.526Z,5.50
2018-04-23T16:31:40.184Z,5.57
2018-04-23T16:34:09.715Z,5.00
2018-04-23T16:36:40.175Z,5.60
2018-04-23T16:39:09.812Z,5.00
2018-04-23T16:41:39.348Z,4.97
2018-04-23T16:44:08.922Z,5.93
2018-04-23T16:46:38.449Z,5.30
2018-04-23T16:49:08.014Z,5.33
2018-04-23T16:51:37.549Z,5.13
2018-04-23T16:54:07.278Z,5.57
2018-04-23T16:56:36.890Z,5.93
2018-04-23T16:59:06.425Z,6.17
2018-04-23T17:01:36.132Z,7.37
2018-04-23T17:04:05.821Z,6.90
2018-04-23T17:06:35.472Z,6.50
2018-04-23T17:09:05.065Z,6.07
2018-04-23T17:11:34.852Z,6.83
2018-04-23T17:14:04.436Z,7.90
2018-04-23T17:16:34.061Z,6.70
2018-04-23T17:19:03.681Z,7.57
2018-04-23T17:21:33.238Z,6.73
2018-04-23T17:24:02.933Z,7.77
2018-04-23T17:26:32.465Z,6.50
2018-04-23T17:29:02.025Z,7.50
2018-04-23T17:31:31.686Z,6.93
2018-04-23T17:34:01.244Z,6.33
2018-04-23T17:36:30.754Z,7.20
2018-04-23T17:39:00.665Z,7.07
2018-04-23T17:41:30.420Z,7.30
2018-04-23T17:43:59.934Z,7.50
2018-04-23T17:46:29.443Z,6.40
2018-04-23T17:48:58.965Z,7.50
2018-04-23T17:51:28.547Z,7.73
2018-04-23T17:53:58.120Z,8.10
2018-04-23T17:57:03.576Z,7.70
2018-04-23T17:59:33.150Z,7.60
2018-04-23T18:02:07.548Z,7.17
2018-04-23T18:04:37.127Z,8.27
2018-04-23T18:07:06.767Z,7.57
2018-04-23T18:09:36.391Z,7.03
2018-04-23T18:12:05.938Z,8.00
2018-04-23T18:14:35.542Z,8.47
2018-04-23T18:17:05.137Z,7.20
2018-04-23T18:19:34.689Z,8.30
2018-04-23T18:22:04.263Z,7.80
2018-04-23T18:24:34.019Z,8.13
2018-04-23T18:27:03.615Z,7.43
2018-04-23T18:29:33.186Z,8.10
2018-04-23T18:32:02.754Z,8.20
2018-04-23T18:34:32.450Z,9.00
2018-04-23T18:37:02.031Z,8.80
2018-04-23T18:39:31.593Z,9.90
2018-04-23T18:42:01.346Z,9.63
2018-04-23T18:44:30.933Z,10.33
2018-04-23T18:47:00.471Z,9.37
2018-04-23T18:49:30.083Z,9.23
2018-04-23T18:52:00.191Z,9.60
2018-04-23T18:54:29.730Z,9.87
2018-04-23T18:56:59.300Z,9.30
2018-04-23T18:59:28.856Z,10.17
2018-04-23T19:01:59.446Z,8.77
2018-04-23T19:04:31.584Z,8.90
2018-04-23T19:07:02.097Z,10.20
2018-04-23T19:09:31.805Z,11.20
2018-04-23T19:12:01.499Z,11.73
2018-04-23T19:14:31.131Z,10.37
2018-04-23T19:17:00.799Z,9.87
2018-04-23T19:19:32.396Z,10.73
2018-04-23T19:22:03.727Z,9.97
2018-04-23T19:24:34.915Z,10.67
2018-04-23T19:27:05.448Z,10.73
2018-04-23T19:29:35.196Z,10.40
2018-04-23T19:32:05.267Z,10.43
2018-04-23T19:34:36.695Z,10.57
2018-04-23T19:37:10.297Z,9.40
2018-04-23T19:39:40.332Z,9.93
2018-04-23T19:42:10.333Z,11.90
2018-04-23T19:44:41.330Z,13.10
2018-04-23T19:47:11.802Z,10.13
2018-04-23T19:49:41.594Z,13.00
2018-04-23T19:52:11.985Z,11.83
2018-04-23T19:54:45.688Z,12.10
2018-04-23T19:57:16.075Z,11.27
2018-04-23T19:59:46.604Z,8.93
2018-04-23T20:02:16.919Z,11.43
2018-04-23T20:07:27.605Z,11.50
2018-04-23T20:09:59.150Z,9.70
2018-04-23T20:12:28.969Z,9.80
2018-04-23T20:14:59.484Z,10.50
2018-04-23T20:17:35.128Z,9.13
2018-04-23T20:20:05.240Z,11.17
2018-04-23T20:22:35.690Z,10.50
2018-04-23T20:25:05.510Z,9.53
2018-04-23T20:27:35.711Z,9.33
2018-04-23T20:32:43.860Z,8.30
2018-04-23T20:35:13.723Z,7.60
2018-04-23T20:37:43.413Z,8.13
2018-04-23T20:40:15.649Z,7.83
2018-04-23T20:42:45.412Z,7.63
2018-04-23T20:45:15.073Z,11.20
2018-04-23T20:47:44.683Z,9.10
2018-04-23T20:50:14.222Z,11.50
2018-04-23T20:52:43.894Z,9.87
2018-04-23T20:55:14.053Z,7.97
2018-04-23T20:57:44.442Z,9.47
2018-04-23T21:00:14.165Z,10.23
2018-04-23T21:02:44.804Z,8.03
2018-04-23T21:05:15.487Z,6.87
2018-04-23T21:07:46.348Z,7.90
2018-04-23T21:10:15.948Z,8.60
2018-04-23T21:12:45.521Z,7.40
2018-04-23T21:15:15.453Z,6.80
2018-04-23T21:17:46.875Z,7.17
2018-04-23T21:20:16.456Z,9.40
2018-04-23T21:22:47.408Z,10.60
